createdAt,value
2023-01-25T00:00:47.788Z,22.93
2023-01-25T00:03:15.579Z,25.07
2023-01-25T00:05:43.344Z,24.93
2023-01-25T00:08:11.054Z,21.30
2023-01-25T00:10:38.847Z,27.57
2023-01-25T00:13:06.601Z,27.87
2023-01-25T00:15:34.717Z,25.30
2023-01-25T00:18:03.817Z,29.83
2023-01-25T00:20:31.552Z,26.40
2023-01-25T00:22:59.260Z,25.87
2023-01-25T00:25:26.948Z,23.70
2023-01-25T00:27:54.683Z,26.30
2023-01-25T00:30:22.411Z,27.97
2023-01-25T00:32:55.504Z,24.47
2023-01-25T00:35:24.733Z,27.20
2023-01-25T00:37:54.816Z,23.77
2023-01-25T00:40:22.554Z,24.37
2023-01-25T00:42:50.285Z,24.23
2023-01-25T00:45:19.108Z,26.27
2023-01-25T00:47:46.868Z,28.83
2023-01-25T00:50:14.618Z,24.60
2023-01-25T00:52:43.746Z,26.07
2023-01-25T00:55:11.541Z,26.33
2023-01-25T00:57:39.276Z,28.80
2023-01-25T01:00:08.659Z,23.63
2023-01-25T01:02:36.368Z,19.10
2023-01-25T01:05:04.188Z,23.03
2023-01-25T01:07:32.371Z,19.27
2023-01-25T01:10:01.783Z,26.63
2023-01-25T01:12:29.477Z,25.77
2023-01-25T01:14:57.676Z,24.43
2023-01-25T01:17:25.751Z,29.20
2023-01-25T01:19:53.473Z,25.07
2023-01-25T01:22:21.243Z,26.13
2023-01-25T01:24:49.272Z,27.07
2023-01-25T01:27:18.504Z,27.17
2023-01-25T01:29:46.802Z,24.53
2023-01-25T01:32:14.585Z,26.97
2023-01-25T01:34:42.417Z,23.73
2023-01-25T01:37:10.129Z,31.73
2023-01-25T01:39:37.846Z,31.87
2023-01-25T01:42:05.907Z,21.50
2023-01-25T01:44:49.699Z,25.73
2023-01-25T01:47:23.569Z,31.50
2023-01-25T01:49:55.094Z,28.10
2023-01-25T01:52:29.391Z,27.40
2023-01-25T01:55:01.260Z,30.90
2023-01-25T01:57:33.229Z,30.77
2023-01-25T02:00:06.537Z,26.43
2023-01-25T02:02:34.496Z,27.50
2023-01-25T02:05:08.391Z,24.20
2023-01-25T02:07:38.373Z,29.57
2023-01-25T02:10:08.515Z,27.20
2023-01-25T02:12:37.865Z,28.83
2023-01-25T02:15:08.723Z,28.90
2023-01-25T02:17:39.502Z,27.27
2023-01-25T02:20:16.623Z,25.33
2023-01-25T02:22:53.136Z,28.57
2023-01-25T02:25:22.523Z,26.90
2023-01-25T02:27:54.851Z,29.47
2023-01-25T02:30:23.679Z,25.17
2023-01-25T02:32:51.817Z,30.73
2023-01-25T02:35:22.027Z,21.03
2023-01-25T02:37:50.373Z,28.00
2023-01-25T02:40:18.498Z,25.10
2023-01-25T02:42:48.073Z,30.93
2023-01-25T02:45:19.839Z,29.40
2023-01-25T02:47:48.682Z,34.13
2023-01-25T02:50:17.047Z,23.97
2023-01-25T02:52:44.834Z,27.87
2023-01-25T02:55:12.646Z,33.47
2023-01-25T02:57:40.371Z,34.87
2023-01-25T03:00:11.450Z,31.97
2023-01-25T03:02:39.218Z,31.80
2023-01-25T03:05:07.761Z,31.10
2023-01-25T03:07:35.590Z,29.60
2023-01-25T03:10:03.315Z,27.77
2023-01-25T03:12:31.014Z,29.60
2023-01-25T03:14:58.748Z,27.50
2023-01-25T03:17:28.182Z,30.77
2023-01-25T03:19:55.889Z,35.57
2023-01-25T03:22:23.785Z,31.43
2023-01-25T03:24:51.485Z,32.93
2023-01-25T03:27:19.336Z,33.73
2023-01-25T03:29:47.479Z,30.97
2023-01-25T03:32:15.328Z,39.23
2023-01-25T03:34:44.551Z,28.63
2023-01-25T03:37:12.328Z,33.57
2023-01-25T03:39:40.043Z,29.63
2023-01-25T03:42:08.015Z,30.33
2023-01-25T03:44:35.847Z,29.23
2023-01-25T03:47:04.104Z,34.30
2023-01-25T03:49:31.929Z,29.97
2023-01-25T03:52:01.061Z,34.43
2023-01-25T03:54:28.810Z,24.40
2023-01-25T03:56:56.520Z,28.80
2023-01-25T03:59:24.312Z,21.87
2023-01-25T04:01:52.156Z,25.43
2023-01-25T04:04:19.940Z,30.43
2023-01-25T04:06:47.661Z,20.73
2023-01-25T04:09:17.185Z,35.67
2023-01-25T04:11:44.901Z,30.17
2023-01-25T04:14:12.891Z,23.83
2023-01-25T04:16:40.651Z,34.17
2023-01-25T04:19:08.604Z,23.17
2023-01-25T04:21:36.386Z,35.80
2023-01-25T04:24:04.316Z,38.07
2023-01-25T04:26:33.440Z,32.80
2023-01-25T04:29:01.167Z,31.60
2023-01-25T04:31:28.992Z,31.60
2023-01-25T04:33:56.949Z,34.33
2023-01-25T04:36:24.697Z,33.20
2023-01-25T04:38:52.384Z,36.13
2023-01-25T04:41:20.107Z,19.10
2023-01-25T04:43:49.193Z,34.23
2023-01-25T04:46:16.954Z,31.60
2023-01-25T04:48:45.121Z,28.10
2023-01-25T04:51:14.361Z,28.57
2023-01-25T04:53:42.141Z,26.57
2023-01-25T04:56:09.935Z,27.57
2023-01-25T04:58:37.892Z,30.27
2023-01-25T05:01:07.385Z,24.17
2023-01-25T05:03:35.166Z,31.90
2023-01-25T05:06:02.969Z,29.90
2023-01-25T05:08:31.730Z,21.43
2023-01-25T05:10:59.463Z,33.80
2023-01-25T05:13:27.168Z,29.27
2023-01-25T05:15:57.148Z,29.57
2023-01-25T05:18:30.994Z,27.73
2023-01-25T05:21:03.600Z,28.90
2023-01-25T05:23:31.394Z,30.47
2023-01-25T05:26:16.605Z,30.90
2023-01-25T05:28:44.332Z,27.07
2023-01-25T05:31:12.432Z,15.73
2023-01-25T05:33:41.595Z,27.50
2023-01-25T05:36:09.523Z,24.67
2023-01-25T05:38:37.268Z,23.87
2023-01-25T05:41:05.163Z,23.83
2023-01-25T05:43:32.896Z,23.10
2023-01-25T05:46:00.822Z,26.87
2023-01-25T05:48:28.603Z,17.47
2023-01-25T05:50:59.889Z,27.70
2023-01-25T05:53:27.895Z,32.87
2023-01-25T05:55:55.982Z,33.50
2023-01-25T05:58:23.924Z,30.73
2023-01-25T06:00:51.608Z,28.27
2023-01-25T06:03:19.386Z,26.43
2023-01-25T06:05:47.215Z,29.83
2023-01-25T06:08:16.324Z,23.97
2023-01-25T06:10:44.082Z,34.07
2023-01-25T06:13:11.822Z,25.87
2023-01-25T06:15:39.596Z,29.50
2023-01-25T06:18:07.379Z,28.13
2023-01-25T06:20:35.170Z,27.97
2023-01-25T06:23:02.910Z,26.97
2023-01-25T06:25:31.979Z,35.30
2023-01-25T06:27:59.702Z,28.63
2023-01-25T06:30:27.415Z,26.00
2023-01-25T06:32:55.133Z,30.83
2023-01-25T06:35:22.865Z,30.00
2023-01-25T06:37:50.642Z,26.63
2023-01-25T06:40:18.676Z,31.03
2023-01-25T06:42:47.791Z,26.60
2023-01-25T06:45:15.589Z,31.57
2023-01-25T06:47:43.396Z,32.80
2023-01-25T06:50:11.845Z,27.33
2023-01-25T06:52:39.639Z,32.63
2023-01-25T06:55:12.849Z,32.03
2023-01-25T06:57:41.010Z,33.33
2023-01-25T07:00:11.855Z,32.83
2023-01-25T07:02:39.922Z,24.77
2023-01-25T07:05:08.994Z,28.43
2023-01-25T07:07:36.833Z,32.40
2023-01-25T07:10:04.779Z,26.83
2023-01-25T07:12:32.621Z,30.93
2023-01-25T07:15:00.353Z,24.87
2023-01-25T07:17:29.469Z,25.30
2023-01-25T07:19:57.278Z,30.23
2023-01-25T07:22:25.088Z,31.20
2023-01-25T07:24:53.904Z,30.67
2023-01-25T07:27:21.619Z,30.87
2023-01-25T07:29:49.358Z,26.87
2023-01-25T07:32:17.076Z,26.27
2023-01-25T07:34:46.176Z,24.37
2023-01-25T07:37:13.904Z,26.40
2023-01-25T07:39:48.119Z,24.00
2023-01-25T07:42:16.233Z,24.67
2023-01-25T07:44:43.940Z,34.50
2023-01-25T07:47:11.823Z,17.47
2023-01-25T07:49:39.541Z,33.73
2023-01-25T07:52:08.693Z,29.60
2023-01-25T07:54:36.425Z,30.50
2023-01-25T07:57:04.173Z,25.50
2023-01-25T07:59:32.326Z,22.03
2023-01-25T08:02:00.136Z,27.77
2023-01-25T08:04:27.966Z,29.17
2023-01-25T08:06:55.681Z,27.07
2023-01-25T08:09:25.211Z,25.13
2023-01-25T08:11:53.635Z,29.60
2023-01-25T08:14:21.482Z,28.27
2023-01-25T08:16:49.210Z,32.57
2023-01-25T08:19:16.996Z,25.87
2023-01-25T08:21:44.709Z,21.33
2023-01-25T08:24:13.091Z,25.73
2023-01-25T08:26:43.568Z,26.10
2023-01-25T08:29:12.850Z,28.07
2023-01-25T08:31:43.926Z,29.50
2023-01-25T08:34:11.851Z,28.17
2023-01-25T08:36:39.581Z,31.60
2023-01-25T08:39:09.118Z,23.13
2023-01-25T08:41:37.271Z,18.53
2023-01-25T08:44:06.816Z,23.53
2023-01-25T08:46:35.825Z,17.00
2023-01-25T08:49:04.146Z,21.77
2023-01-25T08:51:33.221Z,22.63
2023-01-25T08:54:04.015Z,20.63
2023-01-25T08:56:31.798Z,23.87
2023-01-25T08:58:59.526Z,27.50
2023-01-25T09:01:28.863Z,21.77
2023-01-25T09:03:56.618Z,31.27
2023-01-25T09:06:24.400Z,32.73
2023-01-25T09:08:52.099Z,25.93
2023-01-25T09:11:22.413Z,25.10
2023-01-25T09:13:50.789Z,26.87
2023-01-25T09:16:27.397Z,22.40
2023-01-25T09:18:57.667Z,22.90
2023-01-25T09:21:25.775Z,25.57
2023-01-25T09:24:05.942Z,22.20
2023-01-25T09:26:35.542Z,22.83
2023-01-25T09:29:03.340Z,15.50
2023-01-25T09:31:31.475Z,18.43
2023-01-25T09:34:01.081Z,26.00
2023-01-25T09:36:28.813Z,18.70
2023-01-25T09:38:56.883Z,20.93
2023-01-25T09:41:43.637Z,15.83
2023-01-25T09:44:25.325Z,24.17
2023-01-25T09:46:57.544Z,21.03
2023-01-25T09:49:45.313Z,21.63
2023-01-25T09:52:39.053Z,17.33
2023-01-25T09:55:14.655Z,23.47
2023-01-25T09:57:45.402Z,24.43
2023-01-25T10:00:21.625Z,28.13
2023-01-25T10:02:55.333Z,23.47
2023-01-25T10:05:29.188Z,25.57
2023-01-25T10:08:01.665Z,21.77
2023-01-25T10:10:36.711Z,15.90
2023-01-25T10:13:04.794Z,21.17
2023-01-25T10:15:39.833Z,23.13
2023-01-25T10:18:21.129Z,24.93
2023-01-25T10:20:56.894Z,20.33
2023-01-25T10:23:52.413Z,18.93
2023-01-25T10:26:26.775Z,22.37
2023-01-25T10:29:03.964Z,25.73
2023-01-25T10:31:41.125Z,23.43
2023-01-25T10:34:20.697Z,19.63
2023-01-25T10:36:55.106Z,24.20
2023-01-25T10:39:23.191Z,19.37
2023-01-25T10:41:56.099Z,25.10
2023-01-25T10:44:26.286Z,19.77
2023-01-25T10:47:00.701Z,15.83
2023-01-25T10:49:37.638Z,17.53
2023-01-25T10:52:18.349Z,19.97
2023-01-25T10:54:46.785Z,14.83
2023-01-25T10:57:19.459Z,23.13
2023-01-25T10:59:48.636Z,14.83
2023-01-25T11:02:45.749Z,22.33
2023-01-25T11:05:28.084Z,19.30
2023-01-25T11:07:57.386Z,18.03
2023-01-25T11:10:34.434Z,19.87
2023-01-25T11:13:21.566Z,22.93
2023-01-25T11:15:51.787Z,20.70
2023-01-25T11:18:23.007Z,19.97
2023-01-25T11:21:05.228Z,23.70
2023-01-25T11:23:35.105Z,19.30
2023-01-25T11:26:14.296Z,17.07
2023-01-25T11:28:42.733Z,12.00
2023-01-25T11:31:13.729Z,17.73
2023-01-25T11:33:42.115Z,13.40
2023-01-25T11:36:26.681Z,18.67
2023-01-25T11:39:19.415Z,16.73
2023-01-25T11:42:00.233Z,23.30
2023-01-25T11:44:56.694Z,19.13
2023-01-25T11:47:41.903Z,20.47
2023-01-25T11:50:16.312Z,20.27
2023-01-25T11:53:09.708Z,17.77
2023-01-25T11:55:46.942Z,18.10
2023-01-25T11:58:33.302Z,21.67
2023-01-25T12:01:12.239Z,21.07
2023-01-25T12:04:25.756Z,24.30
2023-01-25T12:07:00.634Z,22.33
2023-01-25T12:09:44.556Z,22.53
2023-01-25T12:12:25.757Z,21.17
2023-01-25T12:15:11.275Z,22.17
2023-01-25T12:17:51.567Z,28.70
2023-01-25T12:20:37.248Z,22.00
2023-01-25T12:23:25.514Z,25.80
2023-01-25T12:26:08.601Z,24.60
2023-01-25T12:28:42.117Z,27.20
2023-01-25T12:31:15.620Z,21.67
2023-01-25T12:33:48.775Z,25.77
2023-01-25T12:36:21.397Z,22.90
2023-01-25T12:38:54.345Z,24.30
2023-01-25T12:41:30.583Z,21.07
2023-01-25T12:44:09.720Z,15.10
2023-01-25T12:46:43.067Z,11.13
2023-01-25T12:49:21.215Z,20.00
2023-01-25T12:51:50.420Z,14.60
2023-01-25T12:54:24.490Z,22.83
2023-01-25T12:57:02.436Z,19.83
2023-01-25T12:59:41.178Z,11.20
2023-01-25T13:02:23.797Z,22.80
2023-01-25T13:05:03.000Z,26.00
2023-01-25T13:07:38.563Z,19.73
2023-01-25T13:10:19.175Z,28.20
2023-01-25T13:12:54.692Z,22.03
2023-01-25T13:15:42.799Z,22.37
2023-01-25T13:18:39.793Z,22.77
2023-01-25T13:21:13.792Z,20.90
2023-01-25T13:23:47.279Z,23.47
2023-01-25T13:26:49.656Z,19.37
2023-01-25T13:29:46.020Z,19.73
2023-01-25T13:32:35.945Z,22.57
2023-01-25T13:35:05.150Z,20.03
2023-01-25T13:37:35.741Z,17.57
2023-01-25T13:40:06.210Z,19.73
2023-01-25T13:42:36.319Z,21.17
2023-01-25T13:45:15.446Z,18.37
2023-01-25T13:47:46.428Z,18.60
2023-01-25T13:50:23.428Z,17.23
2023-01-25T13:52:58.660Z,18.03
2023-01-25T13:55:27.280Z,16.20
2023-01-25T13:58:09.297Z,16.33
2023-01-25T14:00:37.100Z,15.93
2023-01-25T14:03:07.336Z,16.33
2023-01-25T14:05:35.166Z,14.23
2023-01-25T14:08:02.965Z,16.03
2023-01-25T14:10:31.286Z,17.73
2023-01-25T14:13:01.307Z,21.07
2023-01-25T14:15:31.055Z,19.37
2023-01-25T14:18:15.163Z,20.93
2023-01-25T14:20:43.908Z,23.53
2023-01-25T14:23:25.717Z,20.40
2023-01-25T14:25:55.001Z,15.70
2023-01-25T14:28:23.050Z,17.33
2023-01-25T14:30:55.800Z,17.77
2023-01-25T14:33:28.591Z,17.20
2023-01-25T14:36:05.743Z,17.90
2023-01-25T14:38:38.652Z,16.47
2023-01-25T14:41:14.726Z,17.83
2023-01-25T14:43:45.484Z,14.57
2023-01-25T14:46:28.911Z,16.70
2023-01-25T14:49:25.141Z,21.80
2023-01-25T14:52:00.599Z,17.67
2023-01-25T14:54:31.399Z,17.10
2023-01-25T14:57:01.776Z,18.00
2023-01-25T14:59:37.768Z,16.37
2023-01-25T15:02:18.327Z,17.03
2023-01-25T15:04:56.083Z,16.37
2023-01-25T15:07:37.109Z,11.27
2023-01-25T15:10:15.441Z,20.10
2023-01-25T15:12:43.275Z,15.97
2023-01-25T15:15:22.247Z,15.77
2023-01-25T15:17:51.490Z,15.87
2023-01-25T15:20:36.104Z,20.10
2023-01-25T15:23:18.228Z,16.10
2023-01-25T15:25:57.149Z,16.73
2023-01-25T15:28:26.799Z,17.30
2023-01-25T15:30:54.897Z,13.63
2023-01-25T15:33:25.219Z,14.47
2023-01-25T15:35:55.030Z,15.00
2023-01-25T15:38:24.492Z,14.03
2023-01-25T15:40:52.846Z,15.07
2023-01-25T15:43:21.336Z,11.07
2023-01-25T15:45:51.375Z,15.83
2023-01-25T15:48:23.518Z,18.00
2023-01-25T15:50:51.256Z,10.90
2023-01-25T15:53:20.304Z,20.87
2023-01-25T15:55:51.969Z,13.47
2023-01-25T15:58:33.828Z,9.73
2023-01-25T16:01:01.610Z,16.47
2023-01-25T16:03:29.944Z,14.60
2023-01-25T16:05:59.945Z,12.40
2023-01-25T16:08:30.015Z,15.57
2023-01-25T16:10:58.293Z,13.20
2023-01-25T16:13:26.200Z,12.07
2023-01-25T16:15:56.890Z,11.23
2023-01-25T16:18:24.624Z,14.57
2023-01-25T16:20:52.357Z,16.97
2023-01-25T16:23:20.082Z,12.27
2023-01-25T16:25:49.784Z,16.00
2023-01-25T16:28:17.835Z,21.10
2023-01-25T16:30:45.699Z,10.70
2023-01-25T16:33:13.606Z,20.83
2023-01-25T16:35:41.371Z,16.73
2023-01-25T16:38:12.730Z,18.13
2023-01-25T16:40:40.442Z,14.17
2023-01-25T16:43:09.518Z,19.77
2023-01-25T16:45:37.223Z,17.10
2023-01-25T16:48:05.346Z,17.20
2023-01-25T16:50:33.168Z,16.83
2023-01-25T16:53:01.044Z,17.97
2023-01-25T16:55:28.754Z,16.80
2023-01-25T16:57:56.477Z,17.63
2023-01-25T17:00:25.790Z,16.30
2023-01-25T17:02:59.101Z,17.27
2023-01-25T17:05:29.009Z,18.07
2023-01-25T17:07:56.874Z,12.57
2023-01-25T17:10:25.057Z,14.93
2023-01-25T17:12:52.884Z,14.77
2023-01-25T17:15:20.583Z,14.37
2023-01-25T17:17:50.735Z,14.20
2023-01-25T17:20:18.626Z,11.97
2023-01-25T17:22:50.946Z,11.53
2023-01-25T17:25:18.911Z,11.70
2023-01-25T17:27:47.058Z,13.73
2023-01-25T17:30:15.491Z,14.47
2023-01-25T17:32:43.238Z,16.47
2023-01-25T17:35:12.343Z,20.40
2023-01-25T17:37:41.118Z,13.43
2023-01-25T17:40:11.307Z,12.47
2023-01-25T17:42:39.284Z,12.37
2023-01-25T17:45:08.975Z,14.27
2023-01-25T17:47:36.907Z,17.30
2023-01-25T17:50:04.926Z,16.43
2023-01-25T17:52:33.999Z,15.40
2023-01-25T17:55:01.738Z,15.57
2023-01-25T17:57:31.311Z,16.30
2023-01-25T17:59:59.152Z,15.90
2023-01-25T18:02:26.903Z,17.70
2023-01-25T18:04:54.801Z,15.70
2023-01-25T18:07:22.512Z,13.83
2023-01-25T18:09:51.749Z,14.77
2023-01-25T18:12:20.693Z,15.60
2023-01-25T18:14:48.622Z,16.33
2023-01-25T18:17:16.320Z,16.67
2023-01-25T18:19:45.863Z,16.50
2023-01-25T18:22:14.712Z,17.50
2023-01-25T18:24:44.760Z,20.30
2023-01-25T18:27:20.057Z,18.77
2023-01-25T18:29:55.064Z,20.23
2023-01-25T18:32:23.164Z,16.50
2023-01-25T18:34:50.915Z,20.20
2023-01-25T18:37:21.810Z,18.07
2023-01-25T18:39:50.954Z,20.60
2023-01-25T18:42:21.381Z,17.03
2023-01-25T18:44:49.270Z,21.07
2023-01-25T18:47:18.947Z,14.90
2023-01-25T18:49:47.334Z,19.40
2023-01-25T18:52:16.618Z,18.70
2023-01-25T18:54:44.526Z,21.00
2023-01-25T18:57:13.215Z,14.73
2023-01-25T18:59:42.473Z,19.97
2023-01-25T19:02:12.851Z,12.13
2023-01-25T19:04:40.919Z,18.07
2023-01-25T19:07:08.732Z,20.27
2023-01-25T19:09:36.567Z,18.47
2023-01-25T19:12:04.737Z,22.03
2023-01-25T19:14:32.466Z,14.57
2023-01-25T19:17:01.568Z,19.17
2023-01-25T19:19:32.054Z,24.67
2023-01-25T19:21:59.975Z,19.87
2023-01-25T19:24:27.909Z,22.93
2023-01-25T19:26:55.725Z,15.50
2023-01-25T19:29:23.434Z,19.83
2023-01-25T19:31:51.616Z,22.37
2023-01-25T19:34:20.758Z,23.17
2023-01-25T19:36:50.112Z,24.03
2023-01-25T19:39:19.299Z,24.13
2023-01-25T19:41:47.108Z,24.07
2023-01-25T19:44:15.630Z,18.13
2023-01-25T19:46:44.005Z,29.07
2023-01-25T19:49:13.246Z,22.97
2023-01-25T19:51:48.824Z,22.77
2023-01-25T19:54:18.540Z,23.10
2023-01-25T19:56:47.881Z,22.20
2023-01-25T19:59:17.268Z,18.27
2023-01-25T20:01:46.223Z,25.07
2023-01-25T20:04:15.723Z,25.33
2023-01-25T20:06:45.213Z,20.70
2023-01-25T20:09:14.137Z,22.67
2023-01-25T20:11:42.718Z,19.90
2023-01-25T20:14:13.444Z,17.13
2023-01-25T20:16:41.163Z,20.77
2023-01-25T20:19:11.614Z,18.80
2023-01-25T20:21:39.824Z,24.93
2023-01-25T20:24:10.483Z,24.23
2023-01-25T20:26:39.771Z,26.17
2023-01-25T20:29:08.588Z,21.83
2023-01-25T20:31:38.221Z,29.47
2023-01-25T20:34:08.835Z,23.57
2023-01-25T20:36:37.094Z,31.57
2023-01-25T20:39:06.124Z,30.40
2023-01-25T20:41:35.969Z,26.03
2023-01-25T20:44:08.444Z,30.53
2023-01-25T20:46:38.638Z,30.23
2023-01-25T20:49:08.446Z,30.93
2023-01-25T20:51:36.612Z,24.50
2023-01-25T20:54:04.504Z,36.67
2023-01-25T20:56:32.765Z,31.70
2023-01-25T20:59:01.871Z,35.97
2023-01-25T21:01:31.263Z,32.03
2023-01-25T21:03:59.506Z,36.37
2023-01-25T21:06:29.302Z,35.87
2023-01-25T21:08:57.191Z,35.43
2023-01-25T21:11:25.105Z,39.97
2023-01-25T21:13:53.895Z,36.10
2023-01-25T21:16:24.060Z,39.90
2023-01-25T21:18:54.521Z,39.63
2023-01-25T21:21:23.413Z,38.00
2023-01-25T21:23:51.831Z,36.20
2023-01-25T21:26:22.014Z,39.27
2023-01-25T21:28:49.982Z,38.73
2023-01-25T21:31:20.166Z,42.50
2023-01-25T21:33:49.590Z,40.00
2023-01-25T21:36:18.798Z,39.07
2023-01-25T21:38:47.901Z,35.90
2023-01-25T21:41:19.861Z,38.53
2023-01-25T21:44:04.994Z,43.20
2023-01-25T21:46:33.229Z,37.57
2023-01-25T21:49:22.246Z,41.10
2023-01-25T21:51:51.974Z,35.97
2023-01-25T21:54:22.195Z,35.17
2023-01-25T21:56:52.212Z,42.40
2023-01-25T21:59:20.107Z,38.57
2023-01-25T22:01:48.523Z,38.43
2023-01-25T22:04:19.604Z,38.63
2023-01-25T22:06:48.717Z,38.93
2023-01-25T22:09:16.653Z,34.43
2023-01-25T22:11:45.935Z,35.63
2023-01-25T22:14:13.701Z,37.03
2023-01-25T22:16:41.471Z,32.87
2023-01-25T22:19:09.314Z,32.87
2023-01-25T22:21:38.754Z,33.10
2023-01-25T22:24:07.567Z,31.53
2023-01-25T22:26:46.276Z,33.17
2023-01-25T22:29:14.949Z,36.30
2023-01-25T22:31:43.195Z,31.97
2023-01-25T22:34:11.846Z,31.10
2023-01-25T22:36:40.945Z,34.73
2023-01-25T22:39:09.157Z,25.67
2023-01-25T22:41:38.445Z,34.20
2023-01-25T22:44:06.379Z,31.57
2023-01-25T22:46:34.426Z,35.53
2023-01-25T22:49:02.566Z,37.93
2023-01-25T22:51:31.475Z,29.77
2023-01-25T22:54:01.392Z,27.53
2023-01-25T22:56:31.775Z,30.07
2023-01-25T22:59:00.561Z,31.03
2023-01-25T23:01:30.507Z,37.27
2023-01-25T23:03:58.888Z,23.87
2023-01-25T23:06:28.016Z,32.23
2023-01-25T23:08:57.382Z,33.70
2023-01-25T23:11:32.062Z,34.17
2023-01-25T23:14:18.079Z,29.20
2023-01-25T23:16:45.887Z,24.87
2023-01-25T23:19:12.667Z,24.07
2023-01-25T23:21:41.208Z,34.07
2023-01-25T23:24:09.898Z,20.40
2023-01-25T23:26:39.150Z,33.87
2023-01-25T23:29:12.335Z,34.93
2023-01-25T23:31:40.277Z,32.10
2023-01-25T23:34:08.301Z,27.23
2023-01-25T23:36:38.690Z,24.47
2023-01-25T23:39:07.066Z,30.10
2023-01-25T23:41:34.914Z,28.50
2023-01-25T23:44:03.977Z,29.90
2023-01-25T23:46:31.753Z,30.93
2023-01-25T23:48:59.512Z,31.67
2023-01-25T23:51:27.259Z,25.63
2023-01-25T23:53:55.824Z,34.27
2023-01-25T23:56:23.916Z,34.50
2023-01-25T23:58:51.785Z,28.47
